Terminal Aerodrome Forecast
Issued by NWS Twin Cities, MN

Home | Current Version | Previous Version | Text Only | Print | Product List | Glossary Off
Versions: 1 2 3 4 5 6 7 8 9 10 11 12 13 14 15 16 17 18 19

074
FTUS43 KMPX 042053 AAA
TAFEAU
TAF AMD
KEAU 042053Z 0421/0518 20004KT P6SM SCT015 OVC040
      TEMPO 0421/0423 5SM -SN BKN015 OVC035
     FM042300 26005KT P6SM BKN025
     FM050400 27003KT P6SM FEW025
     FM051500 18004KT P6SM SCT025 BKN100=

USA.gov is the U.S. government's official web portal to all federal, state and local government web resources and services.